createdAt,value
2023-01-02T00:00:01.000Z,5.67
2023-01-02T00:05:01.000Z,5.64
2023-01-02T00:10:02.000Z,5.57
2023-01-02T00:15:01.000Z,5.52
2023-01-02T00:20:01.000Z,5.47
2023-01-02T00:25:01.000Z,5.43
2023-01-02T00:30:01.000Z,5.36
2023-01-02T00:35:02.000Z,5.33
2023-01-02T00:40:01.000Z,5.31
2023-01-02T00:45:02.000Z,5.30
2023-01-02T00:50:01.000Z,5.26
2023-01-02T00:55:02.000Z,5.23
2023-01-02T01:00:01.000Z,5.16
2023-01-02T01:05:02.000Z,5.13
2023-01-02T01:10:02.000Z,5.09
2023-01-02T01:15:02.000Z,5.04
2023-01-02T01:20:01.000Z,5.04
2023-01-02T01:25:02.000Z,5.05
2023-01-02T01:30:01.000Z,5.07
2023-01-02T01:35:01.000Z,5.06
2023-01-02T01:40:01.000Z,5.06
2023-01-02T01:45:02.000Z,5.04
2023-01-02T01:50:01.000Z,5.04
2023-01-02T01:55:01.000Z,4.96
2023-01-02T02:00:01.000Z,4.90
2023-01-02T02:05:01.000Z,5.21
2023-01-02T02:10:01.000Z,5.17
2023-01-02T02:15:02.000Z,5.02
2023-01-02T02:20:02.000Z,4.91
2023-01-02T02:25:01.000Z,4.90
2023-01-02T02:30:01.000Z,4.88
2023-01-02T02:35:01.000Z,4.89
2023-01-02T02:40:01.000Z,4.83
2023-01-02T02:45:01.000Z,4.87
2023-01-02T02:50:02.000Z,4.90
2023-01-02T02:55:01.000Z,4.90
2023-01-02T03:00:03.000Z,4.93
2023-01-02T03:05:01.000Z,4.87
2023-01-02T03:10:01.000Z,4.88
2023-01-02T03:15:01.000Z,4.89
2023-01-02T03:20:02.000Z,4.97
2023-01-02T03:25:01.000Z,5.05
2023-01-02T03:30:02.000Z,5.08
2023-01-02T03:35:01.000Z,5.06
2023-01-02T03:40:01.000Z,5.10
2023-01-02T03:45:01.000Z,5.05
2023-01-02T03:50:01.000Z,4.97
2023-01-02T03:55:01.000Z,4.97
2023-01-02T04:00:01.000Z,4.93
2023-01-02T04:05:02.000Z,4.90
2023-01-02T04:10:01.000Z,4.90
2023-01-02T04:15:01.000Z,4.86
2023-01-02T04:20:02.000Z,4.80
2023-01-02T04:25:02.000Z,4.76
2023-01-02T04:30:01.000Z,4.74
2023-01-02T04:35:01.000Z,4.77
2023-01-02T04:40:02.000Z,4.81
2023-01-02T04:45:01.000Z,4.89
2023-01-02T04:50:02.000Z,4.82
2023-01-02T04:55:02.000Z,4.78
2023-01-02T05:00:01.000Z,4.76
2023-01-02T05:05:01.000Z,4.73
2023-01-02T05:10:01.000Z,4.73
2023-01-02T05:15:01.000Z,4.75
2023-01-02T05:20:03.000Z,4.73
2023-01-02T05:25:02.000Z,4.72
2023-01-02T05:30:01.000Z,4.67
2023-01-02T05:35:01.000Z,4.66
2023-01-02T05:40:01.000Z,4.65
2023-01-02T05:45:01.000Z,4.63
2023-01-02T05:50:01.000Z,4.66
2023-01-02T05:55:01.000Z,4.72
2023-01-02T06:00:02.000Z,4.72
2023-01-02T06:05:01.000Z,4.83
2023-01-02T06:10:01.000Z,4.93
2023-01-02T06:15:01.000Z,4.93
2023-01-02T06:20:01.000Z,4.89
2023-01-02T06:25:01.000Z,4.91
2023-01-02T06:30:02.000Z,4.91
2023-01-02T06:35:02.000Z,4.93
2023-01-02T06:40:01.000Z,4.95
2023-01-02T06:45:01.000Z,4.96
2023-01-02T06:50:01.000Z,4.90
2023-01-02T06:55:01.000Z,4.86
2023-01-02T07:00:01.000Z,4.83
2023-01-02T07:05:01.000Z,4.80
2023-01-02T07:10:02.000Z,4.76
2023-01-02T07:15:01.000Z,4.73
2023-01-02T07:20:01.000Z,4.68
2023-01-02T07:25:01.000Z,4.67
2023-01-02T07:30:01.000Z,4.64
2023-01-02T07:35:01.000Z,4.65
2023-01-02T07:40:01.000Z,4.63
2023-01-02T07:45:01.000Z,4.63
2023-01-02T07:50:01.000Z,4.61
2023-01-02T07:55:01.000Z,4.61
2023-01-02T08:00:01.000Z,4.60
2023-01-02T08:05:01.000Z,4.63
2023-01-02T08:10:01.000Z,4.68
2023-01-02T08:15:01.000Z,4.73
2023-01-02T08:20:01.000Z,4.76
2023-01-02T08:25:02.000Z,4.80
2023-01-02T08:30:02.000Z,4.87
2023-01-02T08:35:02.000Z,4.92
2023-01-02T08:40:01.000Z,5.00
2023-01-02T08:45:01.000Z,5.06
2023-01-02T08:50:02.000Z,5.11
2023-01-02T08:55:01.000Z,5.19
2023-01-02T09:00:01.000Z,5.31
2023-01-02T09:05:02.000Z,5.46
2023-01-02T09:10:01.000Z,5.57
2023-01-02T09:15:01.000Z,5.74
2023-01-02T09:20:01.000Z,5.91
2023-01-02T09:25:01.000Z,6.06
2023-01-02T09:30:01.000Z,6.14
2023-01-02T09:35:02.000Z,6.21
2023-01-02T09:40:01.000Z,6.33
2023-01-02T09:45:01.000Z,6.45
2023-01-02T09:50:02.000Z,6.58
2023-01-02T09:55:01.000Z,6.70
2023-01-02T10:00:01.000Z,6.83
2023-01-02T10:05:01.000Z,7.00
2023-01-02T10:10:01.000Z,7.26
2023-01-02T10:15:01.000Z,7.37
2023-01-02T10:20:01.000Z,7.48
2023-01-02T10:25:01.000Z,7.58
2023-01-02T10:30:02.000Z,7.62
2023-01-02T10:35:01.000Z,7.69
2023-01-02T10:40:02.000Z,7.74
2023-01-02T10:45:01.000Z,7.79
2023-01-02T10:50:02.000Z,7.86
2023-01-02T10:55:02.000Z,7.91
2023-01-02T11:00:02.000Z,7.94
2023-01-02T11:05:01.000Z,7.93
2023-01-02T11:10:02.000Z,8.02
2023-01-02T11:15:02.000Z,8.17
2023-01-02T11:20:02.000Z,8.34
2023-01-02T11:25:02.000Z,8.42
2023-01-02T11:30:02.000Z,8.59
2023-01-02T11:35:02.000Z,8.79
2023-01-02T11:40:02.000Z,8.95
2023-01-02T11:45:02.000Z,9.15
2023-01-02T11:50:02.000Z,9.24
2023-01-02T11:55:03.000Z,9.33
2023-01-02T12:00:02.000Z,9.51
2023-01-02T12:05:02.000Z,9.68
2023-01-02T12:10:02.000Z,9.88
2023-01-02T12:15:02.000Z,9.90
2023-01-02T12:20:02.000Z,9.95
2023-01-02T12:25:02.000Z,10.04
2023-01-02T12:30:02.000Z,10.26
2023-01-02T12:35:02.000Z,10.39
2023-01-02T12:40:02.000Z,10.49
2023-01-02T12:45:02.000Z,10.70
2023-01-02T12:50:02.000Z,10.92
2023-01-02T12:55:02.000Z,11.27
2023-01-02T13:00:02.000Z,11.37
2023-01-02T13:05:01.000Z,11.51
2023-01-02T13:10:02.000Z,11.71
2023-01-02T13:15:02.000Z,11.90
2023-01-02T13:20:02.000Z,12.06
2023-01-02T13:25:02.000Z,12.21
2023-01-02T13:30:02.000Z,12.42
2023-01-02T13:35:02.000Z,12.48
2023-01-02T13:40:02.000Z,12.49
2023-01-02T13:45:02.000Z,12.50
2023-01-02T13:50:02.000Z,12.42
2023-01-02T13:55:02.000Z,12.36
2023-01-02T14:00:02.000Z,12.33
2023-01-02T14:05:02.000Z,12.12
2023-01-02T14:10:02.000Z,12.00
2023-01-02T14:15:02.000Z,11.92
2023-01-02T14:20:02.000Z,11.87
2023-01-02T14:25:02.000Z,11.82
2023-01-02T14:30:02.000Z,11.85
2023-01-02T14:35:02.000Z,11.79
2023-01-02T14:40:03.000Z,11.68
2023-01-02T14:45:02.000Z,11.74
2023-01-02T14:50:02.000Z,11.64
2023-01-02T14:55:02.000Z,11.63
2023-01-02T15:00:02.000Z,11.52
2023-01-02T15:05:02.000Z,11.48
2023-01-02T15:10:02.000Z,11.42
2023-01-02T15:15:02.000Z,11.28
2023-01-02T15:20:02.000Z,11.15
2023-01-02T15:25:02.000Z,11.08
2023-01-02T15:30:02.000Z,11.04
2023-01-02T15:35:02.000Z,11.16
2023-01-02T15:40:02.000Z,11.15
2023-01-02T15:45:02.000Z,11.21
2023-01-02T15:50:02.000Z,11.22
2023-01-02T15:55:02.000Z,11.30
2023-01-02T16:00:02.000Z,11.39
2023-01-02T16:05:02.000Z,11.41
2023-01-02T16:10:02.000Z,11.41
2023-01-02T16:15:02.000Z,11.39
2023-01-02T16:20:02.000Z,11.33
2023-01-02T16:25:02.000Z,11.40
2023-01-02T16:30:02.000Z,11.41
2023-01-02T16:35:02.000Z,11.39
2023-01-02T16:40:02.000Z,11.25
2023-01-02T16:45:02.000Z,11.17
2023-01-02T16:50:02.000Z,11.12
2023-01-02T16:55:02.000Z,11.09
2023-01-02T17:00:02.000Z,11.05
2023-01-02T17:05:02.000Z,10.94
2023-01-02T17:10:02.000Z,10.87
2023-01-02T17:15:02.000Z,10.83
2023-01-02T17:20:02.000Z,10.81
2023-01-02T17:25:02.000Z,10.68
2023-01-02T17:30:02.000Z,10.60
2023-01-02T17:35:02.000Z,10.56
2023-01-02T17:40:02.000Z,10.49
2023-01-02T17:45:02.000Z,10.52
2023-01-02T17:50:02.000Z,10.48
2023-01-02T17:55:02.000Z,10.50
2023-01-02T18:00:02.000Z,10.52
2023-01-02T18:05:02.000Z,10.54
2023-01-02T18:10:02.000Z,10.48
2023-01-02T18:15:02.000Z,10.46
2023-01-02T18:20:02.000Z,10.46
2023-01-02T18:25:02.000Z,10.43
2023-01-02T18:30:02.000Z,10.37
2023-01-02T18:35:02.000Z,10.36
2023-01-02T18:40:02.000Z,10.36
2023-01-02T18:45:02.000Z,10.33
2023-01-02T18:50:03.000Z,10.31
2023-01-02T18:55:02.000Z,10.31
2023-01-02T19:00:02.000Z,10.27
2023-01-02T19:05:02.000Z,10.22
2023-01-02T19:10:03.000Z,10.18
2023-01-02T19:15:02.000Z,10.18
2023-01-02T19:20:02.000Z,10.12
2023-01-02T19:25:03.000Z,10.06
2023-01-02T19:30:02.000Z,10.04
2023-01-02T19:35:02.000Z,10.05
2023-01-02T19:40:02.000Z,10.08
2023-01-02T19:45:02.000Z,10.07
2023-01-02T19:50:03.000Z,10.00
2023-01-02T19:55:02.000Z,9.98
2023-01-02T20:00:02.000Z,9.96
2023-01-02T20:05:02.000Z,9.91
2023-01-02T20:10:02.000Z,9.88
2023-01-02T20:15:02.000Z,9.92
2023-01-02T20:20:02.000Z,9.89
2023-01-02T20:25:03.000Z,9.85
2023-01-02T20:30:02.000Z,9.82
2023-01-02T20:35:02.000Z,9.79
2023-01-02T20:40:02.000Z,9.77
2023-01-02T20:45:02.000Z,9.78
2023-01-02T20:50:02.000Z,9.74
2023-01-02T20:55:03.000Z,9.71
2023-01-02T21:00:03.000Z,9.67
2023-01-02T21:05:03.000Z,9.59
2023-01-02T21:10:02.000Z,9.50
2023-01-02T21:15:03.000Z,9.42
2023-01-02T21:20:02.000Z,9.36
2023-01-02T21:25:03.000Z,9.36
2023-01-02T21:30:03.000Z,9.40
2023-01-02T21:35:03.000Z,9.45
2023-01-02T21:40:02.000Z,9.44
2023-01-02T21:45:03.000Z,9.42
2023-01-02T21:50:02.000Z,9.42
2023-01-02T21:55:02.000Z,9.38
2023-01-02T22:00:03.000Z,9.31
2023-01-02T22:05:03.000Z,9.21
2023-01-02T22:10:02.000Z,9.20
2023-01-02T22:15:02.000Z,9.11
2023-01-02T22:20:03.000Z,9.05
2023-01-02T22:25:03.000Z,9.02
2023-01-02T22:30:02.000Z,9.00
2023-01-02T22:35:02.000Z,9.00
2023-01-02T22:40:03.000Z,9.01
2023-01-02T22:45:02.000Z,9.02
2023-01-02T22:50:02.000Z,9.07
2023-01-02T22:55:02.000Z,9.07
2023-01-02T23:00:03.000Z,9.06
2023-01-02T23:05:02.000Z,9.09
2023-01-02T23:10:03.000Z,9.10
2023-01-02T23:15:02.000Z,9.11
2023-01-02T23:20:02.000Z,9.11
2023-01-02T23:25:02.000Z,9.12
2023-01-02T23:30:02.000Z,9.15
2023-01-02T23:35:03.000Z,9.16
2023-01-02T23:40:03.000Z,9.20
2023-01-02T23:45:03.000Z,9.21
2023-01-02T23:50:03.000Z,9.21
2023-01-02T23:55:03.000Z,9.20
